»·PEaware :: N1399 KNZY-KPMD

N1399 :: KNZY-KPMD

FLIGHT INFORMATION

Flight Status: Arrived
Operator: Privately registered:
United States
More flights under this callsign
Pilot: David C. (16084)
Aircraft: SOCATA TBM-900
(TBM9)
More flights by this aircraft type
Origin: KNZY North Island NAS
United States
Destination: KPMD Palmdale AF Plant 42
United States
More flights between these airports :: More routes between these airports
Route: NASNI9 NASNI MZB V23 SLI V459 BERRI V201 PMD
File this flight plan on PilotEdge
Remarks:
Altitude:
(Current/Filed)
20,000ft
Speed:
(Current/Filed)
299kts
Departed: 21-May-21 10:33 AM
Arrived: 21-May-21 11:20 AM
Distance/Time
Traveled:
124nm/0:47
Distance/Time
To Go:
Arrived

Flight Plot

Page will automatically refresh every two minutes.

Flight plan parsing failed; only flown route is shown


Map Options




Map Legend


Flown Route
Filed Route
Departure Airport
Arrival Airport
Navaid (VOR, NDB)
Fix

Horizontal Profiles

Position Reports

Time Latitude Longitude Heading Altitude Ground
Speed
21-May-21 09:55 32.695342 -117.202257 299 29ft 0kts
21-May-21 09:56 32.695342 -117.202257 299 29ft 0kts
21-May-21 09:57 32.695342 -117.202257 299 29ft 0kts
21-May-21 09:58 32.695342 -117.202257 299 29ft 0kts
21-May-21 09:59 32.695342 -117.202257 299 29ft 0kts
21-May-21 10:00 32.695342 -117.202257 299 29ft 0kts
21-May-21 10:01 32.695342 -117.202257 299 29ft 0kts
21-May-21 10:02 32.695342 -117.202257 299 29ft 0kts
21-May-21 10:03 32.695342 -117.202257 299 29ft 0kts
21-May-21 10:04 32.695342 -117.202257 299 29ft 0kts
21-May-21 10:05 32.695342 -117.202257 299 29ft 0kts
21-May-21 10:06 32.695342 -117.202257 299 29ft 0kts
21-May-21 10:07 32.695342 -117.202257 299 29ft 0kts
21-May-21 10:08 32.695342 -117.202257 299 29ft 0kts
21-May-21 10:09 32.695342 -117.202257 299 29ft 0kts
21-May-21 10:10 32.695342 -117.202257 299 29ft 0kts
21-May-21 10:11 32.695342 -117.202257 299 29ft 0kts
21-May-21 10:12 32.695342 -117.202257 299 29ft 0kts
21-May-21 10:13 32.695342 -117.202257 299 29ft 0kts
21-May-21 10:14 32.695342 -117.202257 299 29ft 0kts
21-May-21 10:15 32.695342 -117.202257 299 29ft 0kts
21-May-21 10:16 32.695342 -117.202257 299 29ft 0kts
21-May-21 10:17 32.695342 -117.202257 299 29ft 0kts
21-May-21 10:18 32.695342 -117.202257 299 29ft 0kts
21-May-21 10:19 32.695342 -117.202257 299 29ft 0kts
21-May-21 10:20 32.695342 -117.202257 299 29ft 0kts
21-May-21 10:21 32.695342 -117.202257 299 29ft 0kts
21-May-21 10:22 32.695342 -117.202257 299 29ft 0kts
21-May-21 10:23 32.694513 -117.203090 202 27ft 10kts
21-May-21 10:24 32.692621 -117.200664 148 23ft 0kts
21-May-21 10:25 32.692621 -117.200664 148 23ft 0kts
21-May-21 10:26 32.692621 -117.200664 148 23ft 0kts
21-May-21 10:27 32.692621 -117.200664 148 23ft 0kts
21-May-21 10:28 32.692621 -117.200664 148 23ft 0kts
21-May-21 10:29 32.692621 -117.200664 148 23ft 0kts
21-May-21 10:30 32.692621 -117.200664 148 23ft 0kts
21-May-21 10:31 32.692621 -117.200664 148 23ft 0kts
21-May-21 10:32 32.692913 -117.203440 301 26ft 58kts
21-May-21 10:33 32.685913 -117.226931 168 1287ft 160kts
21-May-21 10:34 32.640114 -117.225702 208 2819ft 167kts
21-May-21 10:35 32.603713 -117.249489 270 4746ft 154kts
21-May-21 10:36 32.643001 -117.259241 12 6721ft 177kts
21-May-21 10:37 32.689537 -117.246880 0 8712ft 174kts
21-May-21 10:38 32.737932 -117.235662 359 10725ft 180kts
21-May-21 10:39 32.788104 -117.228131 330 12034ft 189kts
21-May-21 10:40 32.843794 -117.251238 332 12013ft 226kts
21-May-21 10:41 32.904558 -117.276577 332 11995ft 234kts
21-May-21 10:42 32.966461 -117.302474 332 11978ft 236kts
21-May-21 10:43 33.028749 -117.328576 332 11973ft 238kts
21-May-21 10:44 33.091666 -117.354990 331 11971ft 241kts
21-May-21 10:45 33.155480 -117.381826 331 11970ft 243kts
21-May-21 10:46 33.219728 -117.408904 331 11970ft 244kts
21-May-21 10:47 33.271582 -117.453699 308 11998ft 229kts
21-May-21 10:48 33.317248 -117.506945 308 11996ft 229kts
21-May-21 10:49 33.362848 -117.560147 308 11996ft 229kts
21-May-21 10:50 33.408510 -117.613500 308 11995ft 229kts
21-May-21 10:51 33.454217 -117.666994 308 11997ft 229kts
21-May-21 10:52 33.500126 -117.720828 308 11986ft 230kts
21-May-21 10:53 33.546088 -117.774843 308 11979ft 230kts
21-May-21 10:54 33.591893 -117.828711 308 11976ft 230kts
21-May-21 10:56 33.637680 -117.882649 308 11975ft 230kts
21-May-21 10:57 33.683468 -117.936674 308 11966ft 230kts
21-May-21 10:58 33.729315 -117.990851 308 11965ft 230kts
21-May-21 10:59 33.775132 -118.045081 308 11965ft 230kts
21-May-21 11:00 33.832961 -118.083272 325 11965ft 240kts
21-May-21 11:01 33.893462 -118.118026 325 11964ft 240kts
21-May-21 11:02 33.953987 -118.152865 325 11964ft 240kts
21-May-21 11:03 34.014495 -118.187757 325 11964ft 240kts
21-May-21 11:04 34.067852 -118.218571 325 11964ft 240kts
21-May-21 11:05 34.127652 -118.253153 325 11962ft 240kts
21-May-21 11:06 34.188101 -118.288067 328 11978ft 241kts
21-May-21 11:07 34.257755 -118.261657 15 11983ft 273kts
21-May-21 11:08 34.327324 -118.224962 15 11989ft 273kts
21-May-21 11:09 34.397214 -118.188038 15 11993ft 273kts
21-May-21 11:10 34.467249 -118.150986 15 11580ft 277kts
21-May-21 11:11 34.531418 -118.105963 50 10314ft 252kts
21-May-21 11:12 34.551881 -118.029618 69 8527ft 231kts
21-May-21 11:13 34.572492 -117.952868 72 6214ft 223kts
21-May-21 11:14 34.604366 -117.919214 332 5325ft 153kts
21-May-21 11:15 34.631744 -117.953247 296 4782ft 124kts
21-May-21 11:16 34.637063 -117.988108 276 3860ft 101kts
21-May-21 11:16 34.635708 -118.014904 274 3609ft 98kts
21-May-21 11:18 34.633906 -118.048010 273 3103ft 80kts
21-May-21 11:19 34.632768 -118.073843 272 2572ft 75kts
21-May-21 11:20 34.632118 -118.088637 298 2512ft 14kts
21-May-21 11:20 34.634705 -118.089110 283 2504ft 6kts
21-May-21 11:22 34.634511 -118.093710 264 2510ft 18kts
21-May-21 11:23 34.636018 -118.097114 273 2511ft 0kts
21-May-21 11:23 34.636018 -118.097114 273 2511ft 0kts
21-May-21 11:24 34.636018 -118.097114 273 2511ft 0kts
21-May-21 11:26 34.636018 -118.097114 273 2512ft 0kts

Navigation Log

Ident Type
Flight plan parsing failed, navigation log unavailable